Aviation Digital Data Service (ADDS)

Output produced by METARs form (1556 UTC 30 October 2020)
found at http://www.aviationweather.gov/metar/data/
 
KAGS 301553Z 31008KT 10SM CLR 20/09 A3003 RMK AO2 SLP168 T02000094
KAGS 301503Z 3015/3112 33010KT P6SM SKC 
     FM302300 01006KT P6SM SKC